Rhodes Point, Maryland
Current Conditions -  °F | °C
As of 8:53 AM on Thursday 23 Oct 2014 (Local Time) from KNUI Reporting Station
Overcast Overcast  
Wind Chill: 54°   Ceiling: 4600
Heat Index: 54°   Visibility: 10mi
Dew Point: 42°   Wind: 13mph
Humidity: 64%   Direction: 300°WNW
Pressure: 29.87"   Gusts: 21mph
Location:  38.0048°N, 75.999°W
Report Text: KNUI 231253Z AUTO 30011G18KT 10SM OVC046 12/06 A2987 RMK AO2 SLP116 T01220056
Loading
Personal Weather Stations






























Interactive Weather Map
Tropical Storm Tracking
New forecast layout! Learn more

10-Day Weather Forecast

Advertisements
Track Severe Weather on mobile